createdAt,value
2023-12-10T00:01:38.180Z,0.20
2023-12-10T00:04:07.306Z,0.20
2023-12-10T00:06:35.045Z,0.10
2023-12-10T00:09:03.718Z,0.10
2023-12-10T00:11:31.786Z,0.10
2023-12-10T00:13:59.464Z,0.10
2023-12-10T00:16:27.095Z,0.10
2023-12-10T00:18:54.892Z,0.32
2023-12-10T00:21:23.970Z,0.10
2023-12-10T00:23:51.679Z,0.50
2023-12-10T00:26:19.944Z,0.10
2023-12-10T00:28:47.603Z,28.40
2023-12-10T00:31:15.325Z,0.57
2023-12-10T00:33:43.089Z,0.10
2023-12-10T00:36:11.123Z,0.68
2023-12-10T00:38:40.340Z,0.10
2023-12-10T00:41:08.305Z,0.43
2023-12-10T00:43:35.984Z,1.38
2023-12-10T00:46:03.587Z,5.65
2023-12-10T00:48:31.591Z,0.10
2023-12-10T00:50:59.969Z,1.55
2023-12-10T00:53:27.621Z,2.67
2023-12-10T00:55:56.813Z,2.08
2023-12-10T01:00:52.681Z,11.60
2023-12-10T01:03:20.610Z,1.63
2023-12-10T01:05:48.323Z,0.10
2023-12-10T01:08:17.623Z,9.48
2023-12-10T01:13:14.099Z,0.32
2023-12-10T01:15:41.797Z,0.10
2023-12-10T01:18:09.723Z,0.85
2023-12-10T01:20:38.478Z,0.10
2023-12-10T01:23:06.284Z,0.10
2023-12-10T01:25:33.951Z,0.17
2023-12-10T01:28:01.571Z,0.10
2023-12-10T01:30:30.669Z,0.35
2023-12-10T01:32:59.835Z,0.20
2023-12-10T01:37:55.898Z,0.10
2023-12-10T01:40:23.901Z,0.10
2023-12-10T01:42:51.709Z,0.10
2023-12-10T01:45:20.773Z,0.10
2023-12-10T01:47:51.548Z,0.22
2023-12-10T01:50:20.531Z,0.10
2023-12-10T01:52:49.313Z,0.82
2023-12-10T01:55:17.606Z,0.10
2023-12-10T01:57:45.625Z,0.10
2023-12-10T02:00:14.583Z,0.20
2023-12-10T02:02:44.065Z,0.45
2023-12-10T02:05:13.187Z,0.10
2023-12-10T02:07:43.946Z,4.07
2023-12-10T02:10:11.799Z,2.03
2023-12-10T02:12:39.901Z,0.43
2023-12-10T02:15:17.512Z,0.10
2023-12-10T02:17:47.098Z,0.10
2023-12-10T02:20:16.780Z,0.10
2023-12-10T02:22:53.311Z,0.10
2023-12-10T02:25:29.148Z,0.10
2023-12-10T02:27:57.001Z,0.10
2023-12-10T02:30:24.670Z,0.10
2023-12-10T02:32:52.340Z,0.00
2023-12-10T02:35:20.233Z,0.10
2023-12-10T02:37:47.883Z,4.10
2023-12-10T02:40:18.093Z,0.20
2023-12-10T02:42:47.218Z,0.10
2023-12-10T02:47:42.929Z,0.10
2023-12-10T02:50:11.280Z,0.10
2023-12-10T02:52:39.217Z,0.10
2023-12-10T02:55:10.209Z,0.10
2023-12-10T02:57:38.087Z,0.10
2023-12-10T03:00:10.122Z,0.30
2023-12-10T03:02:37.817Z,0.10
2023-12-10T03:05:06.065Z,0.03
2023-12-10T03:07:34.610Z,0.10
2023-12-10T03:10:02.501Z,0.03
2023-12-10T03:12:30.322Z,0.10
2023-12-10T03:14:58.320Z,0.32
2023-12-10T03:17:27.334Z,6.28
2023-12-10T03:19:54.981Z,3.53
2023-12-10T03:22:22.658Z,0.10
2023-12-10T03:24:50.483Z,0.10
2023-12-10T03:27:18.312Z,0.10
2023-12-10T03:29:45.937Z,0.10
2023-12-10T03:32:13.638Z,0.80
2023-12-10T03:34:43.054Z,0.00
2023-12-10T03:37:11.246Z,0.10
2023-12-10T03:39:38.910Z,0.10
2023-12-10T03:42:06.638Z,0.82
2023-12-10T03:44:34.978Z,0.17
2023-12-10T03:47:03.568Z,0.10
2023-12-10T03:49:32.605Z,0.10
2023-12-10T03:52:01.695Z,0.10
2023-12-10T03:54:29.315Z,0.10
2023-12-10T03:56:56.981Z,2.13
2023-12-10T03:59:24.660Z,1.67
2023-12-10T04:01:52.246Z,0.10
2023-12-10T04:04:19.962Z,0.28
2023-12-10T04:06:47.652Z,0.55
2023-12-10T04:09:16.695Z,0.10
2023-12-10T04:11:44.349Z,0.20
2023-12-10T04:14:12.146Z,0.28
2023-12-10T04:16:41.073Z,0.10
2023-12-10T04:19:08.776Z,0.10
2023-12-10T04:21:36.467Z,0.10
2023-12-10T04:24:04.348Z,1.33
2023-12-10T04:26:33.321Z,0.10
2023-12-10T04:29:00.931Z,0.10
2023-12-10T04:31:28.813Z,5.88
2023-12-10T04:33:56.631Z,0.08
2023-12-10T04:36:24.436Z,0.10
2023-12-10T04:38:52.086Z,0.05
2023-12-10T04:41:19.704Z,0.38
2023-12-10T04:43:50.085Z,0.10
2023-12-10T04:46:17.991Z,0.10
2023-12-10T04:48:45.703Z,0.10
2023-12-10T04:51:13.945Z,0.10
2023-12-10T04:53:41.642Z,0.17
2023-12-10T04:56:10.412Z,0.10
2023-12-10T04:58:38.277Z,7.70
2023-12-10T05:01:08.290Z,1.15
2023-12-10T05:03:36.004Z,0.10
2023-12-10T05:06:04.112Z,0.20
2023-12-10T05:08:31.766Z,0.38
2023-12-10T05:10:59.416Z,0.00
2023-12-10T05:13:28.546Z,0.70
2023-12-10T05:15:58.135Z,0.10
2023-12-10T05:18:27.386Z,0.10
2023-12-10T05:23:22.721Z,0.10
2023-12-10T05:25:50.468Z,0.10
2023-12-10T05:28:18.154Z,0.75
2023-12-10T05:30:45.815Z,0.10
2023-12-10T05:33:13.745Z,0.10
2023-12-10T05:35:42.852Z,0.45
2023-12-10T05:38:10.573Z,0.10
2023-12-10T05:40:38.977Z,0.20
2023-12-10T05:43:06.813Z,0.10
2023-12-10T05:45:34.514Z,0.85
2023-12-10T05:48:02.233Z,0.15
2023-12-10T05:50:29.916Z,0.10
2023-12-10T05:52:58.870Z,0.30
2023-12-10T05:55:26.493Z,0.77
2023-12-10T05:57:54.521Z,0.93
2023-12-10T06:00:22.477Z,0.10
2023-12-10T06:02:50.687Z,0.10
2023-12-10T06:05:18.346Z,0.10
2023-12-10T06:07:45.955Z,0.10
2023-12-10T06:10:16.232Z,0.10
2023-12-10T06:12:44.169Z,2.85
2023-12-10T06:15:12.323Z,0.80
2023-12-10T06:17:39.996Z,0.10
2023-12-10T06:20:09.938Z,0.95
2023-12-10T06:22:37.567Z,0.10
2023-12-10T06:25:05.997Z,0.10
2023-12-10T06:27:35.066Z,0.10
2023-12-10T06:30:02.701Z,0.10
2023-12-10T06:32:30.540Z,0.10
2023-12-10T06:34:59.291Z,0.55
2023-12-10T06:37:26.924Z,0.63
2023-12-10T06:39:55.392Z,0.10
2023-12-10T06:42:23.648Z,0.15
2023-12-10T06:44:52.711Z,0.63
2023-12-10T06:47:20.469Z,0.10
2023-12-10T06:49:48.200Z,0.10
2023-12-10T06:52:16.861Z,0.10
2023-12-10T06:54:44.595Z,0.10
2023-12-10T06:57:12.506Z,0.10
2023-12-10T06:59:40.172Z,0.10
2023-12-10T07:02:09.520Z,0.10
2023-12-10T07:04:37.165Z,0.10
2023-12-10T07:07:05.064Z,0.22
2023-12-10T07:09:32.717Z,0.10
2023-12-10T07:12:00.330Z,0.38
2023-12-10T07:14:27.997Z,0.10
2023-12-10T07:16:55.785Z,0.65
2023-12-10T07:19:25.114Z,0.10
2023-12-10T07:21:53.995Z,0.10
2023-12-10T07:24:22.909Z,0.10
2023-12-10T07:26:50.606Z,1.23
2023-12-10T07:29:18.218Z,1.30
2023-12-10T07:31:46.275Z,0.10
2023-12-10T07:34:13.966Z,0.10
2023-12-10T07:36:43.254Z,0.28
2023-12-10T07:41:38.426Z,0.10
2023-12-10T07:44:06.349Z,0.10
2023-12-10T07:46:34.261Z,0.30
2023-12-10T07:49:02.104Z,1.30
2023-12-10T07:51:29.821Z,2.38
2023-12-10T07:53:58.815Z,0.10
2023-12-10T07:56:28.150Z,0.10
2023-12-10T07:58:55.767Z,0.10
2023-12-10T08:01:23.536Z,0.10
2023-12-10T08:03:52.386Z,0.55
2023-12-10T08:06:20.437Z,0.15
2023-12-10T08:08:48.104Z,1.00
2023-12-10T08:11:17.574Z,0.10
2023-12-10T08:13:45.856Z,0.10
2023-12-10T08:16:13.773Z,0.10
2023-12-10T08:18:41.581Z,0.10
2023-12-10T08:21:10.102Z,0.00
2023-12-10T08:23:37.711Z,0.30
2023-12-10T08:26:05.879Z,0.10
2023-12-10T08:28:34.837Z,0.30
2023-12-10T08:31:02.558Z,0.20
2023-12-10T08:33:31.040Z,2.70
2023-12-10T08:35:58.741Z,0.10
2023-12-10T08:38:26.392Z,0.30
2023-12-10T08:40:54.013Z,0.15
2023-12-10T08:43:22.275Z,0.30
2023-12-10T08:45:51.300Z,0.03
2023-12-10T08:48:19.190Z,0.10
2023-12-10T08:50:46.878Z,0.10
2023-12-10T08:53:14.584Z,0.13
2023-12-10T08:55:42.323Z,0.10
2023-12-10T08:58:10.008Z,0.00
2023-12-10T09:00:37.735Z,0.35
2023-12-10T09:03:06.845Z,1.10
2023-12-10T09:05:34.530Z,0.00
2023-12-10T09:08:02.681Z,1.08
2023-12-10T09:10:30.646Z,0.10
2023-12-10T09:13:42.948Z,0.00
2023-12-10T09:16:10.797Z,0.00
2023-12-10T09:18:38.618Z,0.10
2023-12-10T09:21:08.804Z,0.10
2023-12-10T09:23:36.612Z,0.43
2023-12-10T09:26:04.550Z,0.00
2023-12-10T09:28:32.244Z,3.20
2023-12-10T09:31:01.363Z,0.10
2023-12-10T09:33:29.242Z,0.08
2023-12-10T09:35:57.009Z,2.90
2023-12-10T09:38:24.624Z,15.45
2023-12-10T09:40:52.277Z,8.93
2023-12-10T09:43:19.916Z,11.10
2023-12-10T09:45:47.602Z,10.07
2023-12-10T09:48:18.410Z,8.98
2023-12-10T09:50:46.386Z,6.13
2023-12-10T09:53:14.450Z,7.82
2023-12-10T09:55:42.587Z,7.45
2023-12-10T09:58:10.422Z,8.63
2023-12-10T10:00:40.383Z,9.25
2023-12-10T10:03:09.326Z,7.43
2023-12-10T10:05:38.353Z,4.32
2023-12-10T10:08:06.168Z,6.30
2023-12-10T10:10:33.822Z,9.93
2023-12-10T10:13:01.599Z,5.13
2023-12-10T10:15:31.518Z,3.20
2023-12-10T10:18:00.308Z,6.70
2023-12-10T10:20:28.464Z,9.07
2023-12-10T10:22:58.144Z,10.57
2023-12-10T10:25:26.803Z,9.38
2023-12-10T10:27:54.631Z,6.90
2023-12-10T10:30:23.782Z,10.48
2023-12-10T10:35:19.601Z,8.85
2023-12-10T10:37:48.577Z,15.80
2023-12-10T10:40:18.215Z,6.68
2023-12-10T10:45:14.369Z,8.98
2023-12-10T10:47:42.406Z,7.57
2023-12-10T10:50:21.910Z,10.88
2023-12-10T10:52:53.959Z,5.28
2023-12-10T10:55:25.408Z,7.28
2023-12-10T10:57:53.140Z,8.98
2023-12-10T11:00:38.214Z,8.32
2023-12-10T11:03:09.222Z,7.55
2023-12-10T11:05:37.974Z,6.05
2023-12-10T11:08:06.817Z,5.88
2023-12-10T11:10:36.430Z,6.10
2023-12-10T11:13:04.206Z,6.07
2023-12-10T11:15:32.690Z,13.05
2023-12-10T11:18:02.437Z,7.78
2023-12-10T11:20:32.293Z,11.93
2023-12-10T11:23:00.168Z,10.18
2023-12-10T11:25:29.485Z,9.55
2023-12-10T11:27:59.687Z,7.72
2023-12-10T11:30:27.891Z,10.60
2023-12-10T11:32:55.686Z,5.32
2023-12-10T11:35:23.329Z,10.20
2023-12-10T11:37:51.036Z,8.70
2023-12-10T11:40:18.817Z,9.50
2023-12-10T11:42:46.740Z,7.30
2023-12-10T11:45:16.921Z,7.20
2023-12-10T11:47:45.245Z,13.13
2023-12-10T11:50:14.497Z,7.73
2023-12-10T11:55:11.370Z,13.68
2023-12-10T11:57:43.671Z,10.55
2023-12-10T12:00:13.403Z,19.10
2023-12-10T12:02:47.238Z,11.38
2023-12-10T12:05:17.712Z,4.13
2023-12-10T12:07:46.106Z,6.22
2023-12-10T12:10:14.393Z,13.73
2023-12-10T12:12:43.721Z,9.73
2023-12-10T12:15:13.148Z,9.40
2023-12-10T12:17:42.459Z,10.75
2023-12-10T12:20:19.194Z,7.88
2023-12-10T12:22:49.251Z,8.02
2023-12-10T12:25:17.916Z,10.05
2023-12-10T12:27:45.745Z,8.40
2023-12-10T12:30:14.067Z,7.97
2023-12-10T12:32:41.827Z,11.32
2023-12-10T12:35:10.064Z,7.93
2023-12-10T12:37:39.079Z,5.22
2023-12-10T12:40:08.231Z,10.25
2023-12-10T12:45:03.780Z,6.72
2023-12-10T12:47:31.655Z,10.25
2023-12-10T12:49:59.578Z,12.80
2023-12-10T12:52:27.575Z,9.10
2023-12-10T12:54:56.650Z,5.30
2023-12-10T12:57:24.462Z,9.90
2023-12-10T13:00:53.073Z,7.68
2023-12-10T13:03:20.849Z,8.77
2023-12-10T13:05:48.570Z,3.83
2023-12-10T13:08:16.264Z,7.65
2023-12-10T13:10:44.023Z,7.63
2023-12-10T13:13:11.673Z,7.57
2023-12-10T13:15:39.337Z,5.72
2023-12-10T13:18:08.490Z,4.55
2023-12-10T13:20:36.183Z,5.88
2023-12-10T13:23:03.871Z,10.32
2023-12-10T13:25:31.507Z,8.68
2023-12-10T13:27:59.172Z,7.93
2023-12-10T13:30:26.898Z,3.17
2023-12-10T13:32:55.008Z,10.18
2023-12-10T13:35:24.015Z,8.80
2023-12-10T13:37:51.649Z,11.27
2023-12-10T13:40:19.238Z,8.93
2023-12-10T13:42:46.933Z,9.30
2023-12-10T13:45:14.789Z,5.60
2023-12-10T13:47:42.477Z,12.10
2023-12-10T13:50:12.518Z,9.35
2023-12-10T13:52:44.112Z,7.03
2023-12-10T13:55:11.714Z,11.43
2023-12-10T13:57:39.831Z,10.10
2023-12-10T14:00:09.344Z,10.77
2023-12-10T14:02:36.983Z,10.98
2023-12-10T14:05:07.707Z,13.57
2023-12-10T14:07:35.507Z,8.45
2023-12-10T14:10:05.712Z,12.23
2023-12-10T14:12:33.703Z,7.55
2023-12-10T14:15:01.320Z,8.73
2023-12-10T14:17:29.205Z,5.25
2023-12-10T14:19:57.167Z,9.25
2023-12-10T14:22:25.379Z,8.95
2023-12-10T14:24:53.093Z,8.73
2023-12-10T14:27:22.562Z,8.00
2023-12-10T14:29:50.226Z,8.88
2023-12-10T14:32:18.821Z,7.05
2023-12-10T14:34:46.901Z,8.32
2023-12-10T14:37:14.786Z,7.10
2023-12-10T14:39:43.199Z,7.47
2023-12-10T14:42:11.056Z,8.73
2023-12-10T14:44:40.022Z,11.10
2023-12-10T14:47:07.643Z,8.27
2023-12-10T14:49:36.020Z,10.55
2023-12-10T14:52:04.017Z,10.90
2023-12-10T14:54:31.670Z,12.60
2023-12-10T14:56:59.415Z,9.73
2023-12-10T14:59:27.065Z,10.32
2023-12-10T15:02:02.151Z,9.35
2023-12-10T15:04:37.090Z,7.78
2023-12-10T15:07:05.299Z,8.68
2023-12-10T15:09:33.064Z,10.95
2023-12-10T15:12:00.933Z,13.48
2023-12-10T15:14:28.557Z,7.72
2023-12-10T15:16:57.553Z,6.22
2023-12-10T15:19:27.343Z,9.07
2023-12-10T15:21:55.072Z,11.63
2023-12-10T15:24:22.791Z,9.07
2023-12-10T15:26:50.476Z,9.65
2023-12-10T15:29:18.098Z,8.23
2023-12-10T15:31:46.889Z,7.65
2023-12-10T15:34:15.934Z,5.78
2023-12-10T15:36:43.620Z,5.40
2023-12-10T15:39:11.852Z,10.70
2023-12-10T15:41:39.458Z,6.45
2023-12-10T15:44:07.093Z,10.32
2023-12-10T15:46:34.748Z,9.55
2023-12-10T15:49:02.456Z,9.65
2023-12-10T15:51:31.595Z,7.63
2023-12-10T15:53:59.264Z,7.50
2023-12-10T15:56:26.915Z,7.90
2023-12-10T15:58:54.518Z,4.78
2023-12-10T16:01:24.390Z,11.07
2023-12-10T16:03:52.170Z,7.20
2023-12-10T16:06:19.974Z,4.85
2023-12-10T16:08:49.025Z,11.55
2023-12-10T16:11:16.656Z,11.10
2023-12-10T16:13:44.364Z,6.57
2023-12-10T16:16:12.510Z,7.40
2023-12-10T16:18:40.998Z,4.15
2023-12-10T16:21:10.155Z,9.93
2023-12-10T16:23:37.740Z,9.43
2023-12-10T16:26:06.931Z,6.38
2023-12-10T16:28:34.813Z,13.32
2023-12-10T16:31:02.526Z,11.73
2023-12-10T16:33:31.678Z,10.60
2023-12-10T16:38:26.817Z,9.02
2023-12-10T16:40:54.477Z,10.63
2023-12-10T16:43:23.561Z,13.73
2023-12-10T16:45:51.239Z,12.10
2023-12-10T16:48:18.918Z,12.40
2023-12-10T16:50:46.611Z,3.50
2023-12-10T16:53:14.397Z,8.10
2023-12-10T16:55:42.110Z,12.10
2023-12-10T16:58:10.061Z,12.02
2023-12-10T17:00:39.117Z,13.35
2023-12-10T17:03:06.830Z,15.82
2023-12-10T17:05:34.580Z,12.02
2023-12-10T17:08:02.316Z,14.70
2023-12-10T17:10:29.959Z,12.15
2023-12-10T17:12:57.625Z,6.75
2023-12-10T17:15:26.727Z,6.35
2023-12-10T17:17:55.799Z,12.80
2023-12-10T17:20:23.455Z,10.18
2023-12-10T17:22:51.084Z,12.25
2023-12-10T17:25:18.911Z,11.48
2023-12-10T17:27:46.646Z,9.52
2023-12-10T17:30:14.799Z,7.85
2023-12-10T17:32:42.528Z,8.30
2023-12-10T17:35:11.736Z,13.05
2023-12-10T17:40:08.181Z,7.50
2023-12-10T17:42:35.870Z,14.48
2023-12-10T17:45:03.537Z,20.25
2023-12-10T17:47:31.591Z,9.50
2023-12-10T17:49:59.518Z,11.13
2023-12-10T17:52:29.021Z,10.02
2023-12-10T17:54:57.407Z,7.25
2023-12-10T17:57:25.152Z,14.07
2023-12-10T17:59:52.862Z,13.23
2023-12-10T18:02:20.470Z,5.63
2023-12-10T18:04:48.137Z,14.25
2023-12-10T18:07:15.740Z,8.82
2023-12-10T18:09:44.696Z,8.13
2023-12-10T18:12:12.383Z,9.23
2023-12-10T18:14:40.053Z,10.23
2023-12-10T18:17:07.692Z,4.75
2023-12-10T18:19:35.531Z,8.30
2023-12-10T18:22:03.437Z,10.23
2023-12-10T18:24:31.229Z,15.18
2023-12-10T18:27:00.250Z,7.38
2023-12-10T18:29:28.795Z,15.13
2023-12-10T18:31:56.592Z,13.30
2023-12-10T18:34:26.067Z,5.50
2023-12-10T18:36:54.010Z,6.05
2023-12-10T18:39:21.618Z,5.43
2023-12-10T18:41:49.616Z,7.03
2023-12-10T18:44:18.610Z,5.72
2023-12-10T18:46:46.253Z,12.07
2023-12-10T18:49:14.058Z,9.23
2023-12-10T18:51:41.830Z,6.35
2023-12-10T18:54:09.863Z,8.02
2023-12-10T18:56:37.621Z,6.95
2023-12-10T18:59:05.270Z,8.63
2023-12-10T19:01:34.362Z,10.30
2023-12-10T19:04:02.386Z,6.45
2023-12-10T19:06:30.043Z,7.15
2023-12-10T19:08:57.769Z,7.60
2023-12-10T19:11:25.433Z,4.63
2023-12-10T19:13:53.168Z,4.57
2023-12-10T19:16:20.819Z,5.30
2023-12-10T19:18:50.276Z,4.55
2023-12-10T19:21:18.090Z,6.35
2023-12-10T19:23:45.694Z,7.53
2023-12-10T19:26:13.597Z,5.07
2023-12-10T19:28:41.340Z,4.95
2023-12-10T19:31:09.025Z,13.30
2023-12-10T19:33:38.622Z,4.45
2023-12-10T19:36:15.992Z,4.30
2023-12-10T19:38:44.627Z,3.50
2023-12-10T19:41:14.332Z,2.17
2023-12-10T19:43:42.028Z,4.00
2023-12-10T19:46:09.731Z,4.15
2023-12-10T19:48:37.413Z,4.43
2023-12-10T19:51:06.988Z,2.47
2023-12-10T19:53:34.702Z,2.25
2023-12-10T19:56:04.419Z,8.73
2023-12-10T19:58:32.014Z,2.88
2023-12-10T20:01:00.283Z,2.88
2023-12-10T20:03:30.222Z,5.25
2023-12-10T20:06:00.165Z,4.07
2023-12-10T20:08:29.226Z,1.52
2023-12-10T20:10:57.883Z,3.90
2023-12-10T20:13:25.659Z,3.70
2023-12-10T20:15:53.392Z,3.10
2023-12-10T20:18:22.058Z,7.32
2023-12-10T20:20:50.618Z,2.85
2023-12-10T20:23:18.753Z,2.10
2023-12-10T20:25:47.778Z,2.63
2023-12-10T20:28:16.527Z,1.50
2023-12-10T20:30:44.363Z,2.63
2023-12-10T20:33:12.938Z,3.13
2023-12-10T20:35:41.047Z,2.10
2023-12-10T20:38:08.730Z,3.13
2023-12-10T20:40:37.811Z,2.83
2023-12-10T20:43:07.399Z,4.78
2023-12-10T20:45:36.697Z,8.27
2023-12-10T20:48:04.942Z,3.40
2023-12-10T20:50:32.693Z,1.73
2023-12-10T20:53:00.303Z,1.08
2023-12-10T20:55:28.121Z,2.17
2023-12-10T20:57:55.818Z,2.60
2023-12-10T21:00:24.956Z,0.98
2023-12-10T21:02:52.729Z,0.75
2023-12-10T21:05:20.423Z,1.67
2023-12-10T21:07:48.179Z,1.65
2023-12-10T21:10:15.904Z,1.77
2023-12-10T21:12:43.771Z,3.40
2023-12-10T21:15:11.901Z,1.98
2023-12-10T21:17:41.667Z,1.05
2023-12-10T21:20:10.526Z,1.85
2023-12-10T21:22:38.382Z,3.03
2023-12-10T21:25:07.144Z,0.70
2023-12-10T21:27:34.836Z,1.15
2023-12-10T21:30:02.919Z,2.00
2023-12-10T21:32:30.695Z,3.00
2023-12-10T21:34:59.634Z,2.35
2023-12-10T21:37:27.482Z,2.55
2023-12-10T21:39:55.313Z,3.95
2023-12-10T21:42:23.081Z,2.38
2023-12-10T21:44:50.709Z,2.17
2023-12-10T21:47:18.386Z,1.75
2023-12-10T21:49:46.159Z,1.08
2023-12-10T21:52:15.174Z,3.65
2023-12-10T21:54:42.908Z,3.05
2023-12-10T21:57:10.512Z,2.63
2023-12-10T21:59:38.217Z,2.83
2023-12-10T22:02:05.938Z,0.70
2023-12-10T22:04:33.684Z,0.82
2023-12-10T22:07:01.545Z,2.38
2023-12-10T22:09:30.581Z,1.67
2023-12-10T22:11:58.256Z,2.47
2023-12-10T22:14:26.236Z,1.30
2023-12-10T22:16:54.154Z,1.67
2023-12-10T22:19:22.839Z,2.03
2023-12-10T22:21:50.703Z,4.40
2023-12-10T22:24:18.354Z,2.67
2023-12-10T22:26:47.659Z,4.57
2023-12-10T22:31:42.913Z,2.83
2023-12-10T22:34:10.733Z,3.17
2023-12-10T22:36:38.529Z,1.38
2023-12-10T22:39:09.236Z,1.02
2023-12-10T22:41:37.033Z,2.10
2023-12-10T22:44:07.625Z,2.53
2023-12-10T22:46:35.262Z,0.68
2023-12-10T22:49:03.076Z,1.00
2023-12-10T22:51:30.777Z,2.53
2023-12-10T22:53:58.509Z,2.53
2023-12-10T22:56:26.223Z,1.60
2023-12-10T22:58:53.875Z,3.30
2023-12-10T23:01:23.039Z,2.92
2023-12-10T23:06:18.526Z,0.50
2023-12-10T23:08:46.289Z,0.03
2023-12-10T23:11:14.290Z,0.10
2023-12-10T23:13:41.944Z,0.20
2023-12-10T23:16:12.891Z,0.00
2023-12-10T23:18:42.195Z,0.10
2023-12-10T23:23:37.395Z,0.10
2023-12-10T23:26:07.236Z,0.00
2023-12-10T23:28:34.987Z,0.10
2023-12-10T23:31:03.373Z,0.10
2023-12-10T23:33:31.307Z,0.43
2023-12-10T23:36:00.370Z,0.00
2023-12-10T23:38:28.081Z,0.10
2023-12-10T23:40:55.796Z,0.10
2023-12-10T23:43:23.410Z,0.10
2023-12-10T23:45:51.250Z,0.30
2023-12-10T23:48:19.001Z,0.10
2023-12-10T23:50:46.645Z,0.10
2023-12-10T23:53:15.888Z,0.10
2023-12-10T23:55:43.511Z,0.10
2023-12-10T23:58:11.305Z,0.10
